Time;durP1;ratioP1;P1;durP2;ratioP2;P2;SDS_P1;SDS_P2;PMS_P1;PMS_P2;Temp;Humidity;BMP_temperature;BMP_pressure;BME280_temperature;BME280_humidity;BME280_pressure;Samples;Min_cycle;Max_cycle;Signal;HPM_P1;HPM_P2
2021/06/01 00:00:15;;;;;;;18.75;12.00;;;;;;;8.31;63.67;100706.86;2079190;84;32130;-58
2021/06/01 00:03:19;;;;;;;17.00;12.18;;;;;;;8.26;63.48;100710.17;2074212;84;28194;-57
2021/06/01 00:06:21;;;;;;;19.73;12.20;;;;;;;8.24;63.83;100712.45;2102806;84;30076;-57
2021/06/01 00:09:23;;;;;;;14.28;10.72;;;;;;;8.18;63.53;100706.88;2089941;84;27570;-58
2021/06/01 00:12:25;;;;;;;18.02;9.08;;;;;;;8.16;63.75;100711.37;2068194;86;28762;-57
2021/06/01 00:15:27;;;;;;;15.68;10.23;;;;;;;8.13;64.02;100716.81;2073889;84;33223;-58
2021/06/01 00:18:29;;;;;;;17.07;10.68;;;;;;;8.09;64.01;100709.38;2102697;84;33341;-57
2021/06/01 00:21:35;;;;;;;19.07;10.20;;;;;;;8.03;64.36;100709.13;2074509;84;29364;-57
2021/06/01 00:24:37;;;;;;;17.73;9.38;;;;;;;7.99;64.34;100706.13;2068256;86;28245;-57
2021/06/01 00:27:39;;;;;;;11.93;9.08;;;;;;;7.96;64.37;100703.56;2072085;85;29581;-58
2021/06/01 00:30:41;;;;;;;12.23;8.70;;;;;;;7.93;64.21;100698.34;2087850;83;32116;-58
2021/06/01 00:33:43;;;;;;;14.55;9.30;;;;;;;7.90;64.34;100704.63;2117744;83;34046;-58
2021/06/01 00:36:45;;;;;;;16.02;9.65;;;;;;;7.88;64.36;100701.61;2083757;85;30433;-57
2021/06/01 00:39:48;;;;;;;15.23;8.80;;;;;;;7.85;64.56;100698.59;2083866;85;27750;-57
2021/06/01 00:42:50;;;;;;;14.73;8.23;;;;;;;7.84;64.54;100702.63;2111917;83;28641;-58
2021/06/01 00:45:52;;;;;;;15.13;8.50;;;;;;;7.81;64.79;100702.72;2121074;83;31436;-58
2021/06/01 00:48:54;;;;;;;14.38;9.30;;;;;;;7.78;64.72;100710.36;2120661;83;34066;-58
2021/06/01 00:51:55;;;;;;;14.43;8.90;;;;;;;7.76;64.54;100705.53;2104656;83;29725;-58
2021/06/01 00:54:57;;;;;;;13.28;8.85;;;;;;;7.73;64.94;100707.84;2085556;85;27629;-57
2021/06/01 00:57:59;;;;;;;13.70;8.78;;;;;;;7.71;64.97;100711.02;2085664;85;28621;-58
2021/06/01 01:04:09;;;;;;;14.85;8.70;;;;;;;7.64;65.15;100705.92;2117590;83;33722;-59
2021/06/01 01:07:33;;;;;;;11.45;8.23;;;;;;;7.62;65.28;100711.29;2085554;85;29329;-57
2021/06/01 01:10:27;;;;;;;15.58;8.73;;;;;;;7.58;65.12;100703.85;2087823;83;27654;-58
2021/06/01 01:13:33;;;;;;;16.00;8.48;;;;;;;7.57;65.36;100701.25;2084763;85;28630;-59
2021/06/01 01:16:36;;;;;;;13.48;8.40;;;;;;;7.52;65.45;100696.06;2121329;83;31708;-58
2021/06/01 01:20:08;;;;;;;16.30;8.33;;;;;;;7.49;65.59;100696.15;2111656;83;32755;-57
2021/06/01 01:23:17;;;;;;;18.67;9.45;;;;;;;7.47;65.64;100695.77;2090066;83;29827;-58
2021/06/01 01:26:51;;;;;;;16.55;8.55;;;;;;;7.42;65.89;100692.80;2082907;85;27586;-58
2021/06/01 01:29:53;;;;;;;22.35;10.32;;;;;;;7.38;65.79;100700.47;2071906;85;29091;-57
2021/06/01 01:33:20;;;;;;;16.40;10.40;;;;;;;7.35;65.69;100703.69;2096020;84;31129;-58
2021/06/01 01:36:22;;;;;;;18.82;10.23;;;;;;;7.32;65.86;100705.97;2102794;84;33375;-58
2021/06/01 01:39:25;;;;;;;17.57;10.05;;;;;;;7.29;66.03;100700.72;2105227;84;29822;-58
2021/06/01 01:42:38;;;;;;;18.95;9.80;;;;;;;7.26;66.04;100697.70;2084984;84;28168;-57
2021/06/01 01:45:36;;;;;;;23.05;11.18;;;;;;;7.24;65.97;100696.02;2067958;86;28657;-58
2021/06/01 01:49:02;;;;;;;19.95;11.12;;;;;;;7.20;66.19;100697.87;2087400;84;31372;-59
2021/06/01 01:52:01;;;;;;;16.00;10.25;;;;;;;7.18;66.20;100686.85;2087858;84;33353;-58
2021/06/01 01:55:08;;;;;;;20.60;10.00;;;;;;;7.13;66.37;100683.86;2088685;84;30426;-58
2021/06/01 01:58:12;;;;;;;21.35;10.43;;;;;;;7.11;66.44;100681.73;2097807;84;27702;-58
2021/06/01 02:01:15;;;;;;;18.40;10.38;;;;;;;7.08;66.40;100690.23;2075078;84;28412;-57
2021/06/01 02:04:21;;;;;;;20.50;10.78;;;;;;;7.04;66.61;100681.47;2096384;84;31055;-58
2021/06/01 02:07:23;;;;;;;22.70;11.08;;;;;;;6.99;66.54;100677.62;2068958;86;33064;-57
2021/06/01 02:10:27;;;;;;;19.07;10.40;;;;;;;6.97;66.67;100679.89;2069969;85;27698;-57
2021/06/01 02:13:32;;;;;;;19.60;9.23;;;;;;;6.94;66.66;100676.86;2070055;84;27607;-57
2021/06/01 02:16:39;;;;;;;25.27;12.55;;;;;;;6.92;66.59;100685.35;2083028;84;29248;-58
2021/06/01 02:19:42;;;;;;;18.17;10.75;;;;;;;6.89;66.95;100680.11;2104394;84;32147;-58
2021/06/01 02:26:51;;;;;;;19.45;12.13;;;;;;;6.85;66.94;100682.47;2069860;85;29944;-58
2021/06/01 02:30:13;;;;;;;24.77;12.00;;;;;;;6.82;67.20;100679.88;2069857;85;27642;-59
2021/06/01 02:33:19;;;;;;;20.10;12.10;;;;;;;6.79;67.20;100678.63;2071519;84;30131;-58
2021/06/01 02:36:21;;;;;;;25.60;13.50;;;;;;;6.78;67.25;100675.55;2104767;84;31050;-57
2021/06/01 02:39:24;;;;;;;25.00;12.95;;;;;;;6.76;67.32;100670.72;2104762;84;33299;-57
2021/06/01 02:42:26;;;;;;;23.00;13.30;;;;;;;6.75;67.44;100672.52;2102753;84;30482;-57
2021/06/01 02:45:28;;;;;;;25.62;12.00;;;;;;;6.74;67.45;100665.45;2085388;84;28225;-57
2021/06/01 02:48:30;;;;;;;22.22;12.80;;;;;;;6.74;67.46;100668.11;2070209;84;28615;-57
2021/06/01 02:51:34;;;;;;;22.22;12.60;;;;;;;6.74;67.50;100666.78;2076458;84;30874;-57
2021/06/01 02:54:36;;;;;;;22.93;13.40;;;;;;;6.74;67.55;100675.21;2104654;84;33112;-57
2021/06/01 02:57:40;;;;;;;21.85;12.63;;;;;;;6.73;67.62;100667.70;2104802;84;29693;-57
2021/06/01 03:00:43;;;;;;;22.73;12.82;;;;;;;6.73;67.76;100671.69;2105049;83;28135;-56
2021/06/01 03:03:53;;;;;;;20.27;12.58;;;;;;;6.74;67.83;100663.23;2072918;84;28796;-57
2021/06/01 03:06:55;;;;;;;23.02;13.85;;;;;;;6.78;67.86;100667.56;2103997;84;32263;-57
2021/06/01 03:09:57;;;;;;;25.45;12.75;;;;;;;6.79;67.89;100663.52;2104387;84;34042;-57
2021/06/01 03:13:01;;;;;;;26.25;13.13;;;;;;;6.81;67.85;100665.67;2082806;84;29686;-57
2021/06/01 03:16:04;;;;;;;25.32;13.78;;;;;;;6.85;67.91;100663.83;2101399;82;27621;-58
2021/06/01 03:19:05;;;;;;;25.85;14.63;;;;;;;6.88;68.06;100657.05;2103963;84;28697;-57
2021/06/01 03:22:09;;;;;;;32.75;16.10;;;;;;;6.92;68.07;100657.39;2092845;84;32245;-57
2021/06/01 03:25:12;;;;;;;29.12;15.00;;;;;;;6.97;68.32;100659.91;2070244;86;32926;-57
2021/06/01 03:28:14;;;;;;;24.20;14.18;;;;;;;7.03;68.39;100662.41;2103219;83;29382;-57
2021/06/01 03:31:16;;;;;;;28.57;15.28;;;;;;;7.09;68.37;100654.25;2100221;84;27710;-57
2021/06/01 03:34:18;;;;;;;25.12;13.93;;;;;;;7.14;68.36;100658.95;2050603;85;29726;-56
2021/06/01 03:37:21;;;;;;;26.57;15.48;;;;;;;7.23;68.44;100663.63;2055655;85;31789;-58
2021/06/01 03:40:25;;;;;;;26.85;15.20;;;;;;;7.30;68.45;100655.84;2084072;85;32975;-57
2021/06/01 03:43:27;;;;;;;33.05;16.77;;;;;;;7.39;68.49;100660.02;2057734;85;29977;-57
2021/06/01 03:46:28;;;;;;;28.47;15.50;;;;;;;7.48;68.50;100656.19;2049882;86;27950;-57
2021/06/01 03:49:30;;;;;;;30.40;16.55;;;;;;;7.56;68.53;100657.70;2050018;86;29027;-57
2021/06/01 03:52:32;;;;;;;27.32;16.20;;;;;;;7.66;68.55;100654.76;2065435;85;31343;-57
2021/06/01 03:55:34;;;;;;;24.05;16.23;;;;;;;7.77;68.52;100655.75;2083919;85;32975;-57
2021/06/01 03:58:35;;;;;;;26.80;16.02;;;;;;;7.88;68.59;100654.94;2083975;85;30419;-57
2021/06/01 04:01:37;;;;;;;29.82;16.45;;;;;;;8.00;68.57;100653.19;2079485;85;27597;-57
2021/06/01 04:04:39;;;;;;;30.92;15.93;;;;;;;8.16;68.57;100648.22;2049893;86;29776;-57
2021/06/01 04:07:41;;;;;;;25.62;15.45;;;;;;;8.33;68.62;100646.30;2079016;85;32164;-58
2021/06/01 04:10:43;;;;;;;27.90;16.77;;;;;;;8.53;68.70;100646.09;2063856;85;33997;-58
2021/06/01 04:13:44;;;;;;;27.07;15.00;;;;;;;8.76;68.90;100641.25;2049744;85;29382;-57
2021/06/01 04:16:47;;;;;;;28.92;15.98;;;;;;;9.03;69.02;100637.13;2049836;86;28230;-57
2021/06/01 04:19:49;;;;;;;22.90;15.20;;;;;;;9.36;69.06;100639.92;2057260;85;29934;-57
2021/06/01 04:22:51;;;;;;;26.02;14.87;;;;;;;9.70;68.97;100634.56;2084068;85;31426;-58
2021/06/01 04:25:53;;;;;;;23.38;13.85;;;;;;;10.01;68.82;100629.27;2059658;85;33709;-57
2021/06/01 04:28:56;;;;;;;23.45;13.18;;;;;;;10.31;68.59;100626.22;2071977;85;30326;-57
2021/06/01 04:31:58;;;;;;;24.90;13.55;;;;;;;10.60;68.26;100630.79;2042377;85;27692;-57
2021/06/01 04:35:00;;;;;;;19.98;12.35;;;;;;;10.86;67.83;100625.59;2058462;85;29903;-57
2021/06/01 04:38:01;;;;;;;26.07;14.95;;;;;;;11.07;67.32;100632.27;2074228;85;31720;-58
2021/06/01 04:41:03;;;;;;;25.00;15.35;;;;;;;11.24;66.95;100634.17;2052780;85;34188;-58
2021/06/01 04:44:06;;;;;;;23.87;14.30;;;;;;;11.37;66.50;100633.98;2040373;87;30564;-57
2021/06/01 04:47:08;;;;;;;27.55;14.35;;;;;;;11.54;66.26;100630.47;2064844;85;27643;-57
2021/06/01 04:50:11;;;;;;;24.30;14.03;;;;;;;11.70;65.89;100635.09;2063014;85;29485;-57
2021/06/01 04:53:14;;;;;;;23.83;14.13;;;;;;;11.76;65.48;100632.58;2040356;87;30445;-57
2021/06/01 04:56:18;;;;;;;22.73;15.75;;;;;;;11.82;65.24;100636.31;2058801;85;33741;-58
2021/06/01 04:59:20;;;;;;;27.52;15.63;;;;;;;11.88;65.01;100638.70;2074018;85;29906;-57
2021/06/01 05:02:22;;;;;;;30.05;17.32;;;;;;;11.99;64.89;100639.55;2066612;85;27692;-57
2021/06/01 05:05:24;;;;;;;25.68;13.72;;;;;;;12.14;64.70;100633.85;2040471;87;29693;-58
2021/06/01 05:08:26;;;;;;;22.82;13.68;;;;;;;12.34;64.52;100636.85;2072522;85;32185;-58
2021/06/01 05:11:35;;;;;;;28.05;14.45;;;;;;;12.60;64.14;100638.67;2074207;85;34151;-58
2021/06/01 05:14:37;;;;;;;20.40;12.33;;;;;;;13.12;64.10;100636.81;2063967;85;29514;-57
2021/06/01 05:17:40;;;;;;;20.70;11.97;;;;;;;13.98;63.84;100640.02;2065662;85;27653;-58
2021/06/01 05:20:43;;;;;;;20.48;11.08;;;;;;;15.09;62.98;100635.66;2053351;85;29251;-58
2021/06/01 05:23:45;;;;;;;16.10;11.03;;;;;;;16.38;61.64;100629.48;2040524;87;31123;-60
2021/06/01 05:26:47;;;;;;;16.67;11.63;;;;;;;17.60;60.21;100627.23;2041388;85;34070;-58
2021/06/01 05:29:58;;;;;;;16.87;10.03;;;;;;;19.33;57.49;100611.67;2047389;85;29554;-58
2021/06/01 05:36:15;;;;;;;18.57;9.50;;;;;;;20.26;56.08;100631.22;2064986;85;29746;-58
2021/06/01 05:39:16;;;;;;;17.17;9.95;;;;;;;20.86;54.81;100633.34;2040269;85;31365;-57
2021/06/01 05:42:18;;;;;;;17.35;10.32;;;;;;;21.01;53.25;100634.34;2040501;87;33502;-58
2021/06/01 05:45:23;;;;;;;16.17;9.73;;;;;;;20.90;52.49;100636.66;2040306;87;30526;-64
2021/06/01 05:48:25;;;;;;;17.02;8.85;;;;;;;20.75;52.08;100637.00;2064265;85;27636;-57
2021/06/01 05:51:34;;;;;;;17.80;9.90;;;;;;;20.78;51.64;100638.59;2063556;85;29737;-73
2021/06/01 05:54:30;;;;;;;13.50;9.53;;;;;;;21.03;50.97;100644.09;2071992;85;31025;-57
2021/06/01 05:57:32;;;;;;;14.55;9.75;;;;;;;21.08;50.30;100639.11;2074073;85;32939;-57
2021/06/01 06:00:34;;;;;;;14.00;8.53;;;;;;;21.02;49.46;100647.81;2074115;85;30479;-57
2021/06/01 06:03:36;;;;;;;13.22;8.18;;;;;;;20.82;49.12;100641.92;2074378;85;27622;-57
2021/06/01 06:06:38;;;;;;;14.98;8.58;;;;;;;20.65;48.85;100641.51;2074359;85;29051;-57
2021/06/01 06:09:39;;;;;;;13.40;8.30;;;;;;;20.82;48.83;100633.76;2073972;84;32089;-57
2021/06/01 06:12:41;;;;;;;12.68;7.80;;;;;;;21.40;48.61;100630.42;2106921;84;33272;-58
2021/06/01 06:15:43;;;;;;;9.35;7.35;;;;;;;22.25;48.13;100625.38;2098813;84;30601;-57
2021/06/01 06:18:58;;;;;;;9.73;7.55;;;;;;;23.01;46.67;100625.52;2097603;84;27657;-58
2021/06/01 06:22:00;;;;;;;9.35;7.00;;;;;;;23.73;46.16;100623.03;2098658;84;28635;-58
2021/06/01 06:25:02;;;;;;;10.30;7.15;;;;;;;24.56;44.83;100625.17;2098477;84;32147;-59
2021/06/01 06:28:04;;;;;;;9.33;5.80;;;;;;;25.23;44.09;100631.95;2098546;84;34308;-57
2021/06/01 06:31:06;;;;;;;10.98;6.28;;;;;;;25.90;42.88;100628.39;2101016;84;31424;-58
2021/06/01 06:34:11;;;;;;;6.12;5.53;;;;;;;26.42;42.08;100630.52;2102798;84;27561;-57
2021/06/01 06:37:13;;;;;;;9.08;6.75;;;;;;;26.85;40.45;100617.46;2102772;84;28710;-58
2021/06/01 06:40:16;;;;;;;10.90;6.55;;;;;;;27.25;39.63;100619.72;2102794;84;31373;-70
2021/06/01 06:43:18;;;;;;;11.83;5.92;;;;;;;27.74;38.99;100618.66;2101879;84;33144;-70
2021/06/01 06:46:30;;;;;;;6.62;5.28;;;;;;;28.12;37.93;100618.44;2102967;84;29262;-69
2021/06/01 06:49:33;;;;;;;8.73;4.92;;;;;;;28.57;37.86;100608.39;2102928;84;27684;-71
2021/06/01 06:52:35;;;;;;;6.30;4.67;;;;;;;29.05;36.98;100611.36;2102899;84;28621;-70
2021/06/01 06:55:38;;;;;;;10.08;4.97;;;;;;;29.36;35.62;100608.92;2102838;84;30591;-70
2021/06/01 06:58:39;;;;;;;10.03;4.87;;;;;;;29.71;34.74;100603.08;2102806;84;33852;-70
2021/06/01 07:01:43;;;;;;;15.18;4.95;;;;;;;30.01;34.68;100600.77;2102921;84;29318;-74
2021/06/01 07:04:45;;;;;;;9.30;5.22;;;;;;;30.38;34.04;100608.45;2102976;84;27629;-72
2021/06/01 07:07:51;;;;;;;6.75;5.25;;;;;;;30.68;32.61;100599.98;2102949;84;28599;-68
2021/06/01 07:10:52;;;;;;;8.10;4.70;;;;;;;30.94;32.53;100599.84;2101751;84;31787;-68
2021/06/01 07:14:05;;;;;;;6.70;4.22;;;;;;;31.37;32.26;100598.78;2102769;84;33904;-69
2021/06/01 07:17:06;;;;;;;8.65;4.10;;;;;;;31.72;31.57;100585.41;2095441;84;29326;-68
2021/06/01 07:20:11;;;;;;;6.45;3.67;;;;;;;31.67;30.80;100579.93;2102922;84;27633;-69
2021/06/01 07:23:13;;;;;;;9.50;3.85;;;;;;;31.79;30.56;100583.49;2102149;84;28813;-68
2021/06/01 07:26:15;;;;;;;4.70;3.90;;;;;;;32.03;29.72;100569.56;2102758;84;31627;-65
2021/06/01 07:29:18;;;;;;;4.97;3.67;;;;;;;32.27;29.44;100568.11;2102703;84;32401;-66
2021/06/01 07:32:21;;;;;;;4.35;3.02;;;;;;;32.19;28.72;100561.89;2098836;83;29383;-67
2021/06/01 07:35:23;;;;;;;6.47;3.33;;;;;;;32.09;29.12;100560.96;2098898;84;27652;-71
2021/06/01 07:38:25;;;;;;;7.47;3.62;;;;;;;32.24;28.67;100558.83;2098592;84;29312;-60
2021/06/01 07:41:27;;;;;;;5.60;3.27;;;;;;;32.30;28.18;100550.73;2094078;84;31004;-60
2021/06/01 07:44:30;;;;;;;10.32;3.30;;;;;;;32.14;27.36;100552.84;2098463;84;33038;-60
2021/06/01 07:47:32;;;;;;;4.77;3.40;;;;;;;31.84;27.31;100553.25;2098778;84;29707;-59
2021/06/01 07:50:34;;;;;;;5.70;3.60;;;;;;;31.72;27.07;100554.94;2097227;84;27649;-59
2021/06/01 07:53:38;;;;;;;7.12;3.33;;;;;;;31.92;27.31;100548.03;2093731;85;29807;-61
2021/06/01 07:56:40;;;;;;;5.42;3.50;;;;;;;31.92;26.66;100539.20;2094625;85;31000;-60
2021/06/01 07:59:42;;;;;;;6.95;3.20;;;;;;;31.57;26.65;100535.69;2094364;85;33102;-72
2021/06/01 08:02:44;;;;;;;5.30;2.72;;;;;;;31.30;26.49;100537.02;2094412;85;30459;-59
2021/06/01 08:05:46;;;;;;;5.35;2.85;;;;;;;30.87;26.19;100544.98;2094524;85;27645;-67
2021/06/01 08:08:48;;;;;;;5.45;2.12;;;;;;;30.47;26.11;100549.17;2094405;85;29794;-68
2021/06/01 08:11:50;;;;;;;4.92;2.85;;;;;;;30.07;26.22;100545.23;2094550;85;31001;-67
2021/06/01 08:14:53;;;;;;;6.12;2.40;;;;;;;29.95;26.00;100543.02;2094416;85;33705;-68
2021/06/01 08:18:01;;;;;;;6.15;2.80;;;;;;;29.90;26.14;100549.63;2094363;85;30095;-66
2021/06/01 08:24:06;;;;;;;6.83;2.30;;;;;;;29.99;25.62;100544.34;2097986;84;28697;-66
2021/06/01 08:27:09;;;;;;;3.33;2.35;;;;;;;29.90;25.89;100544.09;2097775;84;31311;-66
2021/06/01 08:30:12;;;;;;;6.22;2.20;;;;;;;29.82;25.90;100533.20;2098393;84;33868;-69
2021/06/01 08:33:13;;;;;;;2.80;2.15;;;;;;;29.85;25.70;100531.43;2102179;84;29499;-68
2021/06/01 08:36:15;;;;;;;2.95;2.42;;;;;;;29.59;25.76;100536.16;2102630;84;27767;-67
2021/06/01 08:39:23;;;;;;;5.40;2.40;;;;;;;29.35;26.01;100529.94;2101897;84;28645;-67
2021/06/01 08:42:22;;;;;;;4.03;2.25;;;;;;;29.04;25.84;100525.50;2102790;84;31126;-68
2021/06/01 08:45:24;;;;;;;4.62;2.90;;;;;;;28.71;26.05;100527.26;2102684;84;35047;-73
2021/06/01 08:48:27;;;;;;;5.17;2.50;;;;;;;28.57;26.33;100521.56;2068032;86;29501;-68
2021/06/01 08:51:28;;;;;;;5.65;2.98;;;;;;;28.66;26.58;100520.94;2068034;86;27659;-74
2021/06/01 08:54:32;;;;;;;5.03;2.40;;;;;;;28.84;25.75;100521.11;2080765;84;28629;-70
2021/06/01 08:57:35;;;;;;;5.22;2.33;;;;;;;29.02;26.10;100512.42;2102767;84;31003;-59
2021/06/01 09:00:37;;;;;;;3.77;2.30;;;;;;;29.18;25.95;100520.48;2102929;84;33358;-59
2021/06/01 09:03:47;;;;;;;4.45;2.20;;;;;;;29.19;26.05;100509.78;2101924;84;30133;-67
2021/06/01 09:06:57;;;;;;;3.15;2.70;;;;;;;29.32;26.46;100520.62;2102831;84;27705;-66
2021/06/01 09:10:27;;;;;;;2.98;2.08;;;;;;;29.44;26.60;100507.21;2102886;84;32739;-65
2021/06/01 09:22:49;;;;;;;3.62;2.42;;;;;;;29.98;25.48;100500.31;2102949;84;27756;-70
2021/06/01 09:25:59;;;;;;;8.97;3.03;;;;;;;29.82;25.67;100496.75;2103122;84;28602;-68
2021/06/01 09:28:59;;;;;;;2.37;2.02;;;;;;;29.79;25.35;100493.00;2103084;84;31174;-69
2021/06/01 09:32:08;;;;;;;5.17;2.80;;;;;;;29.63;25.07;100492.77;2116160;83;32977;-69
2021/06/01 09:35:10;;;;;;;3.47;2.47;;;;;;;29.69;25.90;100475.92;2123814;83;29211;-70
2021/06/01 09:38:13;;;;;;;6.12;2.47;;;;;;;29.75;25.70;100465.48;2122137;83;27739;-72
2021/06/01 09:41:21;;;;;;;3.12;2.10;;;;;;;29.65;25.61;100457.53;2120542;83;28797;-70
2021/06/01 09:44:23;;;;;;;4.95;2.45;;;;;;;29.62;25.85;100465.37;2120189;83;30971;-69
2021/06/01 09:47:30;;;;;;;4.58;2.55;;;;;;;29.68;25.68;100455.77;2120448;83;33006;-72
2021/06/01 09:53:39;;;;;;;3.17;2.08;;;;;;;29.53;24.60;100453.06;2014345;86;27828;-70
2021/06/01 09:56:40;;;;;;;5.22;2.50;;;;;;;29.32;24.47;100453.02;2015125;88;28593;-70
2021/06/01 09:59:42;;;;;;;4.97;2.52;;;;;;;29.08;24.71;100451.81;2015299;86;31720;-70
2021/06/01 10:02:49;;;;;;;2.83;1.87;;;;;;;29.00;25.25;100450.57;2015327;86;33151;-70
2021/06/01 10:05:55;;;;;;;4.22;2.55;;;;;;;29.20;25.97;100449.41;2014790;88;29330;-68
2021/06/01 10:08:57;;;;;;;2.83;2.20;;;;;;;29.51;25.78;100447.42;2015053;88;27766;-69
2021/06/01 10:12:00;;;;;;;2.60;2.20;;;;;;;29.53;25.26;100448.92;2015459;86;29455;-70
2021/06/01 10:15:04;;;;;;;7.50;2.45;;;;;;;29.34;24.51;100446.78;2014913;88;32087;-70
2021/06/01 10:18:10;;;;;;;8.27;2.80;;;;;;;29.18;25.31;100448.74;2015562;86;32967;-70
2021/06/01 10:21:18;;;;;;;2.80;1.80;;;;;;;29.24;25.32;100446.59;2015261;88;29303;-70
2021/06/01 10:24:19;;;;;;;6.62;2.52;;;;;;;29.24;25.20;100444.34;2015311;88;27723;-70
2021/06/01 10:27:21;;;;;;;8.58;2.50;;;;;;;29.23;25.21;100441.25;2039373;85;28721;-68
2021/06/01 10:30:25;;;;;;;6.00;2.47;;;;;;;29.29;25.16;100430.81;2092029;83;31966;-68
2021/06/01 10:33:48;;;;;;;4.58;2.60;;;;;;;29.42;25.47;100434.28;2087511;84;33761;-69
2021/06/01 10:50:07;;;;;;;6.72;2.67;;;;;;;28.99;25.04;100443.84;2044764;86;33073;-67
2021/06/01 10:53:26;;;;;;;3.10;2.55;;;;;;;28.82;25.11;100435.80;2061760;86;29946;-66
2021/06/01 10:56:37;;;;;;;2.62;2.35;;;;;;;28.72;25.40;100438.83;2062976;86;27680;-67
2021/06/01 11:03:06;;;;;;;4.30;2.77;;;;;;;28.72;25.75;100433.31;2062577;86;30995;-61
2021/06/01 11:06:10;;;;;;;4.92;2.25;;;;;;;28.80;25.40;100431.88;2062645;86;33076;-61
2021/06/01 11:09:34;;;;;;;3.12;2.25;;;;;;;28.76;25.17;100422.27;2062630;85;29701;-61
2021/06/01 11:12:39;;;;;;;3.92;2.87;;;;;;;28.74;25.52;100422.14;2056899;86;27668;-62
2021/06/01 11:15:42;;;;;;;5.25;2.83;;;;;;;28.71;26.01;100416.44;2062644;85;29951;-62
2021/06/01 11:18:52;;;;;;;4.58;2.50;;;;;;;28.83;26.08;100416.00;2062251;86;53561;-61
2021/06/01 11:22:00;;;;;;;3.00;2.20;;;;;;;28.90;25.50;100415.53;2042115;86;33753;-62
2021/06/01 11:35:10;;;;;;;3.33;2.30;;;;;;;28.69;25.54;100418.56;2074234;85;31866;-61
2021/06/01 11:38:24;;;;;;;6.55;2.45;;;;;;;28.64;25.45;100417.73;2074164;85;34194;-61
2021/06/01 11:45:03;;;;;;;3.87;2.50;;;;;;;28.51;25.56;100412.06;2074494;85;27675;-72
2021/06/01 11:48:10;;;;;;;3.30;2.20;;;;;;;28.45;25.32;100407.33;2074291;85;28634;-60
2021/06/01 11:51:25;;;;;;;4.62;1.85;;;;;;;28.36;25.23;100405.20;2076838;84;31208;-60
2021/06/01 11:54:27;;;;;;;2.92;1.95;;;;;;;28.35;25.46;100407.63;2077260;85;34011;-70
2021/06/01 11:57:35;;;;;;;3.80;2.52;;;;;;;28.32;25.36;100402.48;2074292;85;29435;-65
2021/06/01 12:04:03;;;;;;;5.45;2.35;;;;;;;28.19;25.25;100405.90;2074392;85;28685;-64
2021/06/01 12:14:00;;;;;;;5.03;2.80;;;;;;;27.76;25.38;100398.23;2040117;87;29541;-75
2021/06/01 12:17:16;;;;;;;4.33;2.65;;;;;;;27.43;25.41;100393.86;1990271;87;27686;-60
2021/06/01 12:20:14;;;;;;;6.08;2.67;;;;;;;27.27;26.19;100393.45;1995739;87;29980;-59
2021/06/01 12:23:49;;;;;;;5.10;2.30;;;;;;;27.08;26.05;100399.44;2060943;85;31766;-59
2021/06/01 12:33:18;;;;;;;2.52;2.17;;;;;;;26.79;26.91;100384.01;2074509;85;27627;-64
2021/06/01 12:43:02;;;;;;;8.35;3.05;;;;;;;26.19;27.73;100377.21;2074066;85;34093;-60
2021/06/01 13:19:45;;;;;;;5.90;3.05;;;;;;;25.53;29.28;100367.18;1972659;90;30295;-58
2021/06/01 13:23:17;;;;;;;3.58;2.75;;;;;;;25.67;29.69;100361.52;1973202;90;27612;-58
2021/06/01 13:39:51;;;;;;;3.30;2.58;;;;;;;26.16;29.79;100356.97;1896462;93;27834;-59
2021/06/01 13:46:38;;;;;;;3.92;2.72;;;;;;;26.26;29.38;100354.01;1897194;93;31740;-59
2021/06/01 13:49:43;;;;;;;3.92;2.65;;;;;;;26.22;28.88;100355.73;1897132;93;33704;-59
2021/06/01 13:52:57;;;;;;;3.58;2.70;;;;;;;26.19;29.29;100349.75;1897352;93;34845;-59
2021/06/01 13:55:57;;;;;;;6.85;2.90;;;;;;;26.19;29.36;100353.87;1911826;92;27913;-59
2021/06/01 13:59:12;;;;;;;3.00;2.65;;;;;;;26.20;29.64;100346.81;1925395;92;28650;-59
2021/06/01 14:27:54;;;;;;;3.87;2.70;;;;;;;25.79;29.82;100340.91;2067848;86;34241;-59
2021/06/01 14:29:35;;;;;;;9.60;2.92;;;;;;;25.52;29.75;100333.08;2068363;86;27481;-59
2021/06/01 15:31:45;;;;;;;3.08;2.17;;;;;;;24.33;31.50;100279.83;2034374;87;30442;-60
2021/06/01 16:29:37;;;;;;;4.85;2.77;;;;;;;22.60;32.96;100263.48;1981490;89;29369;-60
2021/06/01 16:30:46;;;;;;;5.05;3.30;;;;;;;22.33;33.55;100263.00;2005901;87;27919;-59
2021/06/01 16:44:07;;;;;;;4.22;2.80;;;;;;;21.91;34.18;100267.11;2029464;86;27665;-59
2021/06/01 17:03:56;;;;;;;8.70;5.20;;;;;;;21.42;34.96;100263.69;2070361;85;29434;-58
2021/06/01 17:07:05;;;;;;;5.80;3.50;;;;;;;21.36;35.12;100267.87;2070411;85;32213;-58
2021/06/01 17:13:34;;;;;;;3.12;2.77;;;;;;;21.27;35.57;100270.09;2070083;84;30569;-58
2021/06/01 17:16:51;;;;;;;6.80;3.00;;;;;;;21.18;35.87;100271.34;2105312;84;27980;-58
2021/06/01 17:20:10;;;;;;;6.55;3.70;;;;;;;21.10;36.09;100274.80;2104367;84;29057;-58
2021/06/01 17:23:26;;;;;;;6.35;2.85;;;;;;;21.05;36.18;100273.00;2102330;84;31409;-58
2021/06/01 17:36:21;;;;;;;6.85;2.98;;;;;;;20.86;37.09;100273.89;2105203;84;29800;-58
2021/06/01 17:39:23;;;;;;;5.22;3.35;;;;;;;20.77;37.31;100287.86;2104241;84;31425;-58
2021/06/01 17:42:31;;;;;;;5.83;3.12;;;;;;;20.69;37.80;100286.82;2105239;84;33175;-59
2021/06/01 17:45:44;;;;;;;6.67;2.77;;;;;;;20.58;38.14;100294.13;2105334;84;29332;-57
2021/06/01 17:48:55;;;;;;;6.50;3.60;;;;;;;20.46;38.43;100289.80;2105377;84;27577;-59
2021/06/01 17:51:57;;;;;;;8.23;3.22;;;;;;;20.33;38.67;100299.09;2104739;84;29546;-76
2021/06/01 17:55:01;;;;;;;5.50;3.00;;;;;;;20.25;39.03;100298.94;2119974;83;30996;-77
2021/06/01 17:58:03;;;;;;;10.38;2.72;;;;;;;20.17;39.25;100304.20;2133284;83;33192;-76
2021/06/01 18:01:05;;;;;;;4.80;2.75;;;;;;;20.07;39.37;100303.32;2133186;83;29357;-73
2021/06/01 18:04:10;;;;;;;6.50;3.08;;;;;;;19.98;39.54;100311.30;2117671;83;27586;-70
2021/06/01 18:07:18;;;;;;;4.12;2.77;;;;;;;19.88;40.07;100313.12;2114952;84;28611;-74
2021/06/01 18:41:04;;;;;;;6.03;3.67;;;;;;;19.16;41.64;100364.56;2002460;88;28461;-60
2021/06/01 19:50:29;;;;;;;8.55;4.22;;;;;;;17.80;46.90;100429.26;2079372;85;32202;-74
2021/06/01 19:53:31;;;;;;;8.30;4.67;;;;;;;17.80;46.90;100429.26;2079093;85;32944;-59
2021/06/01 19:56:37;;;;;;;7.15;4.28;;;;;;;17.77;47.31;100427.66;2140292;83;30075;-57
2021/06/01 19:59:41;;;;;;;9.50;4.33;;;;;;;17.71;47.55;100432.70;2135148;83;27646;-58
2021/06/01 20:02:45;;;;;;;5.43;4.20;;;;;;;17.71;47.55;100432.70;2130090;83;28798;-57
2021/06/01 20:05:49;;;;;;;5.83;4.20;;;;;;;17.68;47.67;100429.75;2149298;81;32103;-59
2021/06/01 20:08:51;;;;;;;9.07;4.33;;;;;;;17.65;47.93;100434.52;2164984;81;34107;-58
2021/06/01 20:11:54;;;;;;;6.87;4.50;;;;;;;17.62;48.12;100441.05;2165085;82;30540;-59
2021/06/01 20:14:56;;;;;;;5.85;4.22;;;;;;;17.57;48.30;100441.41;2163367;82;27618;-58
2021/06/01 20:18:03;;;;;;;7.10;4.17;;;;;;;17.56;48.53;100442.86;2139944;83;29768;-58
2021/06/01 20:21:05;;;;;;;7.05;4.33;;;;;;;17.51;49.08;100445.94;2163277;82;31023;-59
2021/06/01 20:24:08;;;;;;;7.15;4.62;;;;;;;17.48;49.30;100453.44;2164597;81;33696;-57
2021/06/01 20:27:12;;;;;;;6.03;4.30;;;;;;;17.42;49.24;100442.08;2165152;81;29391;-58
2021/06/01 20:30:26;;;;;;;7.92;4.45;;;;;;;17.38;49.71;100444.64;2109161;83;27616;-58
2021/06/01 20:33:24;;;;;;;8.33;4.72;;;;;;;17.35;49.76;100446.26;2108351;83;29784;-59
2021/06/01 20:36:26;;;;;;;7.60;4.75;;;;;;;17.33;49.93;100446.86;2109097;83;31002;-58
2021/06/01 20:39:29;;;;;;;7.22;4.87;;;;;;;17.32;50.06;100447.84;2108852;83;33750;-59
2021/06/01 20:42:31;;;;;;;8.43;5.15;;;;;;;17.26;50.70;100444.23;2108752;83;30551;-59
2021/06/01 20:45:40;;;;;;;8.53;5.70;;;;;;;17.26;50.70;100444.23;2108970;83;27567;-59
2021/06/01 20:48:42;;;;;;;7.67;5.25;;;;;;;17.25;50.71;100447.44;2108134;84;28722;-60
2021/06/01 20:51:45;;;;;;;10.53;6.05;;;;;;;17.22;51.27;100442.25;2072779;85;31800;-59
2021/06/01 20:54:48;;;;;;;7.30;6.00;;;;;;;17.15;51.70;100440.50;2086304;84;29262;-60
2021/06/01 20:57:59;;;;;;;7.97;5.35;;;;;;;17.15;51.70;100440.50;2086715;84;30434;-60